Ana Sayfa
METAR-TAF:

METAR-TAF

Havaalanları :

Tunus-Kartaca Uluslararası Havalimanı

Tunus, Tunus

Enlem: 36-50N, Boylam: 010-14E, yükseklik: 3 m

Güncel hava durumu gözlemi

Rapor saat 22:00 UTC de 21 dakika önce yapıldı.
Rüzgar doğu/güneydoğudan 7 kt, kuzeydoğu ve güney arasında değişken
Sıcaklık 16°C
Nem 77%
Basınç 1015 hPa
Görüş mesafesi: 7000 m
2600 ft yükseklikte az bulutlu

METAR: DTTA 202200Z 11007KT 050V190 7000 FEW026 16/12 Q1015

Saat: 23:21 (22:21 UTC)

Tahmin

Rapor saat 17:00 UTC de 5 saat ve 21 dakika önce yapıldı.
Ayın 20'si saat 18 UTC'den ayın 21'si saat 18 UTC'ye kadar geçerli Tahmin
Rüzgar doğu/güneydoğudan 15 kt ve 25 kt'a kadar ani rüzgarlar
Görüş mesafesi: 7000 m
2600 ft yükseklikte az bulutlu
Geçici
ayın 21'si saat 00 UTC'den ayın 21'si saat 15 UTC'ye kadar
Rüzgar doğu/güneydoğudan 22 kt ve 32 kt'a kadar ani rüzgarlar

TAF: DTTA 201700Z 2018/2118 12015G25KT 7000 FEW026 TEMPO 2100/2115 12022G32KT

4.000'den fazla havaalanı için hava durumu gözlemleri ve tahminleri (METAR ve TAF raporları).

Kullanılabilir istasyonlar harita üzerinde sarı ve kırmızı noktalarla gösterilir.

İstasyonun adını görmek için fareyi noktanın üzerinde gezdirin.

Sonrasında hava gözlem ve tahminlerini görmek için tıklayın.

Haritayı değiştirmek için: yaklaştırmak için siyah artı işaretli yeşil düğmeye ve uzaklaştırmak için de eksi işaretli düğmeye hızla tıklayın; bitişik haritalar için yeşil okları kullanın.


METAR-TAF: